sensor_id;sensor_type;location;lat;lon;timestamp;temperature;humidity
24226;DHT22;51462;51.422;5.514;2024-02-15T00:01:09;11.90;99.90
24226;DHT22;51462;51.422;5.514;2024-02-15T00:03:35;11.90;99.90
24226;DHT22;51462;51.422;5.514;2024-02-15T00:06:01;12.00;99.90
24226;DHT22;51462;51.422;5.514;2024-02-15T00:08:29;11.90;99.90
24226;DHT22;51462;51.422;5.514;2024-02-15T00:10:55;11.90;99.90
24226;DHT22;51462;51.422;5.514;2024-02-15T00:13:21;12.00;99.90
24226;DHT22;51462;51.422;5.514;2024-02-15T00:15:48;11.90;99.90
24226;DHT22;51462;51.422;5.514;2024-02-15T00:18:14;12.00;99.90
24226;DHT22;51462;51.422;5.514;2024-02-15T00:20:40;11.90;99.90
24226;DHT22;51462;51.422;5.514;2024-02-15T00:23:05;11.90;99.90
24226;DHT22;51462;51.422;5.514;2024-02-15T00:25:32;11.90;99.90
24226;DHT22;51462;51.422;5.514;2024-02-15T00:27:58;12.00;99.90
24226;DHT22;51462;51.422;5.514;2024-02-15T00:30:26;12.00;99.90
24226;DHT22;51462;51.422;5.514;2024-02-15T00:32:52;12.00;99.90
24226;DHT22;51462;51.422;5.514;2024-02-15T00:35:18;11.90;99.90
24226;DHT22;51462;51.422;5.514;2024-02-15T00:37:44;12.00;99.90
24226;DHT22;51462;51.422;5.514;2024-02-15T00:40:10;12.00;99.90
24226;DHT22;51462;51.422;5.514;2024-02-15T00:42:36;12.00;99.90
24226;DHT22;51462;51.422;5.514;2024-02-15T00:45:03;12.00;99.90
24226;DHT22;51462;51.422;5.514;2024-02-15T00:47:29;12.00;99.90
24226;DHT22;51462;51.422;5.514;2024-02-15T00:49:54;12.00;99.90
24226;DHT22;51462;51.422;5.514;2024-02-15T00:52:20;12.00;99.90
24226;DHT22;51462;51.422;5.514;2024-02-15T00:54:46;11.90;99.90
24226;DHT22;51462;51.422;5.514;2024-02-15T00:57:12;12.00;99.90
24226;DHT22;51462;51.422;5.514;2024-02-15T00:59:37;12.00;99.90
24226;DHT22;51462;51.422;5.514;2024-02-15T01:02:03;12.00;99.90
24226;DHT22;51462;51.422;5.514;2024-02-15T01:04:30;12.00;99.90
24226;DHT22;51462;51.422;5.514;2024-02-15T01:06:56;12.00;99.90
24226;DHT22;51462;51.422;5.514;2024-02-15T01:09:22;12.00;99.90
24226;DHT22;51462;51.422;5.514;2024-02-15T01:11:48;12.00;99.90
24226;DHT22;51462;51.422;5.514;2024-02-15T01:14:14;12.00;99.90
24226;DHT22;51462;51.422;5.514;2024-02-15T01:16:43;12.00;99.90
24226;DHT22;51462;51.422;5.514;2024-02-15T01:19:09;12.00;99.90
24226;DHT22;51462;51.422;5.514;2024-02-15T01:21:35;12.10;99.90
24226;DHT22;51462;51.422;5.514;2024-02-15T01:24:04;12.10;99.90
24226;DHT22;51462;51.422;5.514;2024-02-15T01:26:32;12.10;99.90
24226;DHT22;51462;51.422;5.514;2024-02-15T01:28:57;12.00;99.90
24226;DHT22;51462;51.422;5.514;2024-02-15T01:31:23;12.10;99.90
24226;DHT22;51462;51.422;5.514;2024-02-15T01:33:48;12.00;99.90
24226;DHT22;51462;51.422;5.514;2024-02-15T01:36:15;12.00;99.90
24226;DHT22;51462;51.422;5.514;2024-02-15T01:38:41;12.00;99.90
24226;DHT22;51462;51.422;5.514;2024-02-15T01:41:07;12.00;99.90
24226;DHT22;51462;51.422;5.514;2024-02-15T01:43:33;12.00;99.90
24226;DHT22;51462;51.422;5.514;2024-02-15T01:45:59;12.00;99.90
24226;DHT22;51462;51.422;5.514;2024-02-15T01:48:29;12.00;99.90
24226;DHT22;51462;51.422;5.514;2024-02-15T01:50:54;12.00;99.90
24226;DHT22;51462;51.422;5.514;2024-02-15T01:53:20;12.00;99.90
24226;DHT22;51462;51.422;5.514;2024-02-15T01:55:46;12.00;99.90
24226;DHT22;51462;51.422;5.514;2024-02-15T01:58:12;12.00;99.90
24226;DHT22;51462;51.422;5.514;2024-02-15T02:00:38;12.00;99.90
24226;DHT22;51462;51.422;5.514;2024-02-15T02:03:05;11.90;99.90
24226;DHT22;51462;51.422;5.514;2024-02-15T02:05:31;12.00;99.90
24226;DHT22;51462;51.422;5.514;2024-02-15T02:07:57;12.00;99.90
24226;DHT22;51462;51.422;5.514;2024-02-15T02:10:27;12.00;99.90
24226;DHT22;51462;51.422;5.514;2024-02-15T02:12:53;11.90;99.90
24226;DHT22;51462;51.422;5.514;2024-02-15T02:15:18;11.90;99.90
24226;DHT22;51462;51.422;5.514;2024-02-15T02:17:49;11.90;99.90
24226;DHT22;51462;51.422;5.514;2024-02-15T02:20:14;11.90;99.90
24226;DHT22;51462;51.422;5.514;2024-02-15T02:22:40;11.90;99.90
24226;DHT22;51462;51.422;5.514;2024-02-15T02:25:07;11.90;99.90
24226;DHT22;51462;51.422;5.514;2024-02-15T02:27:34;11.90;99.90
24226;DHT22;51462;51.422;5.514;2024-02-15T02:30:00;11.80;99.90
24226;DHT22;51462;51.422;5.514;2024-02-15T02:32:26;11.80;99.90
24226;DHT22;51462;51.422;5.514;2024-02-15T02:34:52;11.80;99.90
24226;DHT22;51462;51.422;5.514;2024-02-15T02:37:23;11.80;99.90
24226;DHT22;51462;51.422;5.514;2024-02-15T02:39:49;11.80;99.90
24226;DHT22;51462;51.422;5.514;2024-02-15T02:42:15;11.80;99.90
24226;DHT22;51462;51.422;5.514;2024-02-15T02:44:40;11.80;99.90
24226;DHT22;51462;51.422;5.514;2024-02-15T02:47:06;11.80;99.90
24226;DHT22;51462;51.422;5.514;2024-02-15T02:49:32;11.80;99.90
24226;DHT22;51462;51.422;5.514;2024-02-15T02:51:58;11.80;99.90
24226;DHT22;51462;51.422;5.514;2024-02-15T02:54:23;11.80;99.90
24226;DHT22;51462;51.422;5.514;2024-02-15T02:56:49;11.80;99.90
24226;DHT22;51462;51.422;5.514;2024-02-15T02:59:14;11.80;99.90
24226;DHT22;51462;51.422;5.514;2024-02-15T03:01:41;11.80;99.90
24226;DHT22;51462;51.422;5.514;2024-02-15T03:04:08;11.80;99.90
24226;DHT22;51462;51.422;5.514;2024-02-15T03:06:34;11.80;99.90
24226;DHT22;51462;51.422;5.514;2024-02-15T03:08:59;11.80;99.90
24226;DHT22;51462;51.422;5.514;2024-02-15T03:11:25;11.80;99.90
24226;DHT22;51462;51.422;5.514;2024-02-15T03:13:50;11.70;99.90
24226;DHT22;51462;51.422;5.514;2024-02-15T03:16:16;11.70;99.90
24226;DHT22;51462;51.422;5.514;2024-02-15T03:18:42;11.70;99.90
24226;DHT22;51462;51.422;5.514;2024-02-15T03:21:08;11.70;99.90
24226;DHT22;51462;51.422;5.514;2024-02-15T03:23:39;11.70;99.90
24226;DHT22;51462;51.422;5.514;2024-02-15T03:26:08;11.80;99.90
24226;DHT22;51462;51.422;5.514;2024-02-15T03:28:33;11.80;99.90
24226;DHT22;51462;51.422;5.514;2024-02-15T03:31:02;11.70;99.90
24226;DHT22;51462;51.422;5.514;2024-02-15T03:33:27;11.80;99.90
24226;DHT22;51462;51.422;5.514;2024-02-15T03:35:58;11.80;99.90
24226;DHT22;51462;51.422;5.514;2024-02-15T03:38:26;11.80;99.90
24226;DHT22;51462;51.422;5.514;2024-02-15T03:40:52;11.80;99.90
24226;DHT22;51462;51.422;5.514;2024-02-15T03:43:17;11.80;99.90
24226;DHT22;51462;51.422;5.514;2024-02-15T03:45:43;11.70;99.90
24226;DHT22;51462;51.422;5.514;2024-02-15T03:48:10;11.80;99.90
24226;DHT22;51462;51.422;5.514;2024-02-15T03:50:35;11.80;99.90
24226;DHT22;51462;51.422;5.514;2024-02-15T03:53:01;11.80;99.90
24226;DHT22;51462;51.422;5.514;2024-02-15T03:55:26;11.80;99.90
24226;DHT22;51462;51.422;5.514;2024-02-15T03:57:52;11.80;99.90
24226;DHT22;51462;51.422;5.514;2024-02-15T04:00:20;11.80;99.90
24226;DHT22;51462;51.422;5.514;2024-02-15T04:02:46;11.90;99.90
24226;DHT22;51462;51.422;5.514;2024-02-15T04:05:14;11.90;99.90
24226;DHT22;51462;51.422;5.514;2024-02-15T04:07:40;11.90;99.90
24226;DHT22;51462;51.422;5.514;2024-02-15T04:10:06;11.90;99.90
24226;DHT22;51462;51.422;5.514;2024-02-15T04:12:32;11.80;99.90
24226;DHT22;51462;51.422;5.514;2024-02-15T04:14:58;11.90;99.90
24226;DHT22;51462;51.422;5.514;2024-02-15T04:17:32;11.90;99.90
24226;DHT22;51462;51.422;5.514;2024-02-15T04:20:00;11.90;99.90
24226;DHT22;51462;51.422;5.514;2024-02-15T04:22:26;12.00;99.90
24226;DHT22;51462;51.422;5.514;2024-02-15T04:24:51;11.90;99.90
24226;DHT22;51462;51.422;5.514;2024-02-15T04:27:17;11.90;99.90
24226;DHT22;51462;51.422;5.514;2024-02-15T04:29:46;11.90;99.90
24226;DHT22;51462;51.422;5.514;2024-02-15T04:32:12;11.90;99.90
24226;DHT22;51462;51.422;5.514;2024-02-15T04:34:39;11.90;99.90
24226;DHT22;51462;51.422;5.514;2024-02-15T04:37:05;11.90;99.90
24226;DHT22;51462;51.422;5.514;2024-02-15T04:39:34;11.90;99.90
24226;DHT22;51462;51.422;5.514;2024-02-15T04:42:02;11.90;99.90
24226;DHT22;51462;51.422;5.514;2024-02-15T04:44:27;11.90;99.90
24226;DHT22;51462;51.422;5.514;2024-02-15T04:46:54;11.90;99.90
24226;DHT22;51462;51.422;5.514;2024-02-15T04:49:20;11.90;99.90
24226;DHT22;51462;51.422;5.514;2024-02-15T04:51:46;11.80;99.90
24226;DHT22;51462;51.422;5.514;2024-02-15T04:54:13;11.80;99.90
24226;DHT22;51462;51.422;5.514;2024-02-15T04:56:42;11.80;99.90
24226;DHT22;51462;51.422;5.514;2024-02-15T04:59:11;11.80;99.90
24226;DHT22;51462;51.422;5.514;2024-02-15T05:01:40;11.80;99.90
24226;DHT22;51462;51.422;5.514;2024-02-15T05:04:10;11.90;99.90
24226;DHT22;51462;51.422;5.514;2024-02-15T05:06:36;11.90;99.90
24226;DHT22;51462;51.422;5.514;2024-02-15T05:09:03;11.80;99.90
24226;DHT22;51462;51.422;5.514;2024-02-15T05:11:38;11.90;99.90
24226;DHT22;51462;51.422;5.514;2024-02-15T05:14:07;11.90;99.90
24226;DHT22;51462;51.422;5.514;2024-02-15T05:16:34;11.80;99.90
24226;DHT22;51462;51.422;5.514;2024-02-15T05:19:00;11.90;99.90
24226;DHT22;51462;51.422;5.514;2024-02-15T05:21:26;11.90;99.90
24226;DHT22;51462;51.422;5.514;2024-02-15T05:23:52;11.90;99.90
24226;DHT22;51462;51.422;5.514;2024-02-15T05:26:18;11.90;99.90
24226;DHT22;51462;51.422;5.514;2024-02-15T05:28:51;11.80;99.90
24226;DHT22;51462;51.422;5.514;2024-02-15T05:31:18;11.90;99.90
24226;DHT22;51462;51.422;5.514;2024-02-15T05:33:49;11.90;99.90
24226;DHT22;51462;51.422;5.514;2024-02-15T05:36:15;11.90;99.90
24226;DHT22;51462;51.422;5.514;2024-02-15T05:38:41;11.90;99.90
24226;DHT22;51462;51.422;5.514;2024-02-15T05:41:07;11.90;99.90
24226;DHT22;51462;51.422;5.514;2024-02-15T05:43:36;11.90;99.90
24226;DHT22;51462;51.422;5.514;2024-02-15T05:46:03;11.90;99.90
24226;DHT22;51462;51.422;5.514;2024-02-15T05:48:28;11.80;99.90
24226;DHT22;51462;51.422;5.514;2024-02-15T05:50:55;11.90;99.90
24226;DHT22;51462;51.422;5.514;2024-02-15T05:53:21;11.90;99.90
24226;DHT22;51462;51.422;5.514;2024-02-15T05:55:47;11.90;99.90
24226;DHT22;51462;51.422;5.514;2024-02-15T05:58:15;11.90;99.90
24226;DHT22;51462;51.422;5.514;2024-02-15T06:00:41;11.90;99.90
24226;DHT22;51462;51.422;5.514;2024-02-15T06:03:07;11.80;99.90
24226;DHT22;51462;51.422;5.514;2024-02-15T06:05:35;11.90;99.90
24226;DHT22;51462;51.422;5.514;2024-02-15T06:08:00;11.80;99.90
24226;DHT22;51462;51.422;5.514;2024-02-15T06:10:26;11.80;99.90
24226;DHT22;51462;51.422;5.514;2024-02-15T06:12:52;11.80;99.90
24226;DHT22;51462;51.422;5.514;2024-02-15T06:15:17;11.80;99.90
24226;DHT22;51462;51.422;5.514;2024-02-15T06:17:44;11.80;99.90
24226;DHT22;51462;51.422;5.514;2024-02-15T06:20:14;11.80;99.90
24226;DHT22;51462;51.422;5.514;2024-02-15T06:22:41;11.80;99.90
24226;DHT22;51462;51.422;5.514;2024-02-15T06:25:07;11.80;99.90
24226;DHT22;51462;51.422;5.514;2024-02-15T06:27:32;11.80;99.90
24226;DHT22;51462;51.422;5.514;2024-02-15T06:29:59;11.80;99.90
24226;DHT22;51462;51.422;5.514;2024-02-15T06:32:43;11.80;99.90
24226;DHT22;51462;51.422;5.514;2024-02-15T06:35:40;11.80;99.90
24226;DHT22;51462;51.422;5.514;2024-02-15T06:38:25;11.80;99.90
24226;DHT22;51462;51.422;5.514;2024-02-15T06:41:26;11.80;99.90
24226;DHT22;51462;51.422;5.514;2024-02-15T06:43:53;11.70;99.90
24226;DHT22;51462;51.422;5.514;2024-02-15T06:46:19;11.80;99.90
24226;DHT22;51462;51.422;5.514;2024-02-15T06:48:45;11.80;99.90
24226;DHT22;51462;51.422;5.514;2024-02-15T06:51:13;11.80;99.90
24226;DHT22;51462;51.422;5.514;2024-02-15T06:53:40;11.70;99.90
24226;DHT22;51462;51.422;5.514;2024-02-15T06:56:08;11.80;99.90
24226;DHT22;51462;51.422;5.514;2024-02-15T06:58:35;11.80;99.90
24226;DHT22;51462;51.422;5.514;2024-02-15T07:01:01;11.80;99.90
24226;DHT22;51462;51.422;5.514;2024-02-15T07:03:28;11.80;99.90
24226;DHT22;51462;51.422;5.514;2024-02-15T07:05:55;11.80;99.90
24226;DHT22;51462;51.422;5.514;2024-02-15T07:08:21;11.80;99.90
24226;DHT22;51462;51.422;5.514;2024-02-15T07:10:50;11.80;99.90
24226;DHT22;51462;51.422;5.514;2024-02-15T07:13:17;11.80;99.90
24226;DHT22;51462;51.422;5.514;2024-02-15T07:15:42;11.80;99.90
24226;DHT22;51462;51.422;5.514;2024-02-15T07:18:09;11.70;99.90
24226;DHT22;51462;51.422;5.514;2024-02-15T07:20:37;11.70;99.90
24226;DHT22;51462;51.422;5.514;2024-02-15T07:23:03;11.70;99.90
24226;DHT22;51462;51.422;5.514;2024-02-15T07:25:29;11.70;99.90
24226;DHT22;51462;51.422;5.514;2024-02-15T07:27:54;11.70;99.90
24226;DHT22;51462;51.422;5.514;2024-02-15T07:30:22;11.70;99.90
24226;DHT22;51462;51.422;5.514;2024-02-15T07:32:49;11.70;99.90
24226;DHT22;51462;51.422;5.514;2024-02-15T07:35:14;11.70;99.90
24226;DHT22;51462;51.422;5.514;2024-02-15T07:37:51;11.70;99.90
24226;DHT22;51462;51.422;5.514;2024-02-15T07:40:18;11.80;99.90
24226;DHT22;51462;51.422;5.514;2024-02-15T07:42:44;11.70;99.90
24226;DHT22;51462;51.422;5.514;2024-02-15T07:45:10;11.70;99.90
24226;DHT22;51462;51.422;5.514;2024-02-15T07:47:36;11.70;99.90
24226;DHT22;51462;51.422;5.514;2024-02-15T07:50:02;11.70;99.90
24226;DHT22;51462;51.422;5.514;2024-02-15T07:52:28;11.70;99.90
24226;DHT22;51462;51.422;5.514;2024-02-15T07:54:54;11.70;99.90
24226;DHT22;51462;51.422;5.514;2024-02-15T07:57:20;11.70;99.90
24226;DHT22;51462;51.422;5.514;2024-02-15T07:59:45;11.70;99.90
24226;DHT22;51462;51.422;5.514;2024-02-15T08:02:13;11.70;99.90
24226;DHT22;51462;51.422;5.514;2024-02-15T08:04:42;11.70;99.90
24226;DHT22;51462;51.422;5.514;2024-02-15T08:07:10;11.70;99.90
24226;DHT22;51462;51.422;5.514;2024-02-15T08:09:37;11.70;99.90
24226;DHT22;51462;51.422;5.514;2024-02-15T08:12:03;11.70;99.90
24226;DHT22;51462;51.422;5.514;2024-02-15T08:14:29;11.70;99.90
24226;DHT22;51462;51.422;5.514;2024-02-15T08:16:55;11.70;99.90
24226;DHT22;51462;51.422;5.514;2024-02-15T08:19:21;11.70;99.90
24226;DHT22;51462;51.422;5.514;2024-02-15T08:21:48;11.70;99.90
24226;DHT22;51462;51.422;5.514;2024-02-15T08:24:16;11.80;99.90
24226;DHT22;51462;51.422;5.514;2024-02-15T08:26:42;11.80;99.90
24226;DHT22;51462;51.422;5.514;2024-02-15T08:29:08;11.80;99.90
24226;DHT22;51462;51.422;5.514;2024-02-15T08:31:35;11.70;99.90
24226;DHT22;51462;51.422;5.514;2024-02-15T08:34:04;11.80;99.90
24226;DHT22;51462;51.422;5.514;2024-02-15T08:36:35;11.80;99.90
24226;DHT22;51462;51.422;5.514;2024-02-15T08:39:01;11.80;99.90
24226;DHT22;51462;51.422;5.514;2024-02-15T08:41:29;11.80;99.90
24226;DHT22;51462;51.422;5.514;2024-02-15T08:43:55;11.80;99.90
24226;DHT22;51462;51.422;5.514;2024-02-15T08:46:23;11.80;99.90
24226;DHT22;51462;51.422;5.514;2024-02-15T08:48:50;11.90;99.90
24226;DHT22;51462;51.422;5.514;2024-02-15T08:51:17;11.90;99.90
24226;DHT22;51462;51.422;5.514;2024-02-15T08:53:43;11.90;99.90
24226;DHT22;51462;51.422;5.514;2024-02-15T08:56:09;11.90;99.90
24226;DHT22;51462;51.422;5.514;2024-02-15T08:58:35;11.90;99.90
24226;DHT22;51462;51.422;5.514;2024-02-15T09:01:01;11.90;99.90
24226;DHT22;51462;51.422;5.514;2024-02-15T09:03:28;11.90;99.90
24226;DHT22;51462;51.422;5.514;2024-02-15T09:05:54;11.90;99.90
24226;DHT22;51462;51.422;5.514;2024-02-15T09:08:19;11.90;99.90
24226;DHT22;51462;51.422;5.514;2024-02-15T09:10:47;12.00;99.90
24226;DHT22;51462;51.422;5.514;2024-02-15T09:13:12;11.90;99.90
24226;DHT22;51462;51.422;5.514;2024-02-15T09:15:39;11.90;99.90
24226;DHT22;51462;51.422;5.514;2024-02-15T09:18:06;12.00;99.90
24226;DHT22;51462;51.422;5.514;2024-02-15T09:20:35;12.00;99.90
24226;DHT22;51462;51.422;5.514;2024-02-15T09:23:02;12.00;99.90
24226;DHT22;51462;51.422;5.514;2024-02-15T09:25:34;12.00;99.90
24226;DHT22;51462;51.422;5.514;2024-02-15T09:28:00;12.00;99.90
24226;DHT22;51462;51.422;5.514;2024-02-15T09:30:25;12.10;99.90
24226;DHT22;51462;51.422;5.514;2024-02-15T09:32:53;12.10;99.90
24226;DHT22;51462;51.422;5.514;2024-02-15T09:35:18;12.00;99.90
24226;DHT22;51462;51.422;5.514;2024-02-15T09:37:48;12.10;99.90
24226;DHT22;51462;51.422;5.514;2024-02-15T09:40:15;12.20;99.90
24226;DHT22;51462;51.422;5.514;2024-02-15T09:42:42;12.20;99.90
24226;DHT22;51462;51.422;5.514;2024-02-15T09:45:11;12.20;99.90
24226;DHT22;51462;51.422;5.514;2024-02-15T09:47:40;12.20;99.90
24226;DHT22;51462;51.422;5.514;2024-02-15T09:50:07;12.20;99.90
24226;DHT22;51462;51.422;5.514;2024-02-15T09:52:33;12.30;99.90
24226;DHT22;51462;51.422;5.514;2024-02-15T09:55:03;12.30;99.90
24226;DHT22;51462;51.422;5.514;2024-02-15T09:57:30;12.30;99.90
24226;DHT22;51462;51.422;5.514;2024-02-15T09:59:58;12.30;99.90
24226;DHT22;51462;51.422;5.514;2024-02-15T10:02:26;12.30;99.90
24226;DHT22;51462;51.422;5.514;2024-02-15T10:04:53;12.40;99.90
24226;DHT22;51462;51.422;5.514;2024-02-15T10:07:24;12.30;99.90
24226;DHT22;51462;51.422;5.514;2024-02-15T10:09:52;12.30;99.90
24226;DHT22;51462;51.422;5.514;2024-02-15T10:12:18;12.30;99.90
24226;DHT22;51462;51.422;5.514;2024-02-15T10:14:50;12.40;99.90
24226;DHT22;51462;51.422;5.514;2024-02-15T10:17:18;12.40;99.90
24226;DHT22;51462;51.422;5.514;2024-02-15T10:19:44;12.40;99.90
24226;DHT22;51462;51.422;5.514;2024-02-15T10:22:10;12.50;99.90
24226;DHT22;51462;51.422;5.514;2024-02-15T10:24:37;12.50;99.90
24226;DHT22;51462;51.422;5.514;2024-02-15T10:27:05;12.50;99.90
24226;DHT22;51462;51.422;5.514;2024-02-15T10:29:36;12.50;99.90
24226;DHT22;51462;51.422;5.514;2024-02-15T10:32:03;12.40;99.90
24226;DHT22;51462;51.422;5.514;2024-02-15T10:34:30;12.50;99.90
24226;DHT22;51462;51.422;5.514;2024-02-15T10:37:14;12.60;99.90
24226;DHT22;51462;51.422;5.514;2024-02-15T10:39:42;12.60;99.90
24226;DHT22;51462;51.422;5.514;2024-02-15T10:42:08;12.70;99.90
24226;DHT22;51462;51.422;5.514;2024-02-15T10:44:37;12.70;99.90
24226;DHT22;51462;51.422;5.514;2024-02-15T10:47:06;12.70;99.90
24226;DHT22;51462;51.422;5.514;2024-02-15T10:49:33;12.70;99.90
24226;DHT22;51462;51.422;5.514;2024-02-15T10:52:00;12.80;99.90
24226;DHT22;51462;51.422;5.514;2024-02-15T10:56:59;12.80;99.90
24226;DHT22;51462;51.422;5.514;2024-02-15T10:59:32;12.80;99.90
24226;DHT22;51462;51.422;5.514;2024-02-15T11:01:59;12.80;99.90
24226;DHT22;51462;51.422;5.514;2024-02-15T11:04:26;13.00;99.90
24226;DHT22;51462;51.422;5.514;2024-02-15T11:06:58;13.00;99.90
24226;DHT22;51462;51.422;5.514;2024-02-15T11:09:24;12.90;99.90
24226;DHT22;51462;51.422;5.514;2024-02-15T11:11:54;13.10;99.90
24226;DHT22;51462;51.422;5.514;2024-02-15T11:14:31;13.10;99.90
24226;DHT22;51462;51.422;5.514;2024-02-15T11:17:00;13.10;99.90
24226;DHT22;51462;51.422;5.514;2024-02-15T11:22:08;13.10;99.90
24226;DHT22;51462;51.422;5.514;2024-02-15T11:24:36;13.10;99.90
24226;DHT22;51462;51.422;5.514;2024-02-15T11:27:03;13.20;99.90
24226;DHT22;51462;51.422;5.514;2024-02-15T11:29:54;13.30;99.90
24226;DHT22;51462;51.422;5.514;2024-02-15T11:32:49;13.40;99.90
24226;DHT22;51462;51.422;5.514;2024-02-15T11:35:22;13.30;99.90
24226;DHT22;51462;51.422;5.514;2024-02-15T11:40:22;13.50;99.90
24226;DHT22;51462;51.422;5.514;2024-02-15T11:42:49;13.50;99.90
24226;DHT22;51462;51.422;5.514;2024-02-15T11:45:16;13.50;99.90
24226;DHT22;51462;51.422;5.514;2024-02-15T11:47:48;13.50;99.90
24226;DHT22;51462;51.422;5.514;2024-02-15T11:50:18;13.70;99.90
24226;DHT22;51462;51.422;5.514;2024-02-15T11:52:44;13.70;99.90
24226;DHT22;51462;51.422;5.514;2024-02-15T11:55:12;13.80;99.90
24226;DHT22;51462;51.422;5.514;2024-02-15T11:57:39;13.90;99.90
24226;DHT22;51462;51.422;5.514;2024-02-15T12:00:23;13.90;99.90
24226;DHT22;51462;51.422;5.514;2024-02-15T12:03:08;13.70;99.90
24226;DHT22;51462;51.422;5.514;2024-02-15T12:05:54;13.70;99.90
24226;DHT22;51462;51.422;5.514;2024-02-15T12:08:38;13.90;99.90
24226;DHT22;51462;51.422;5.514;2024-02-15T12:11:23;13.80;99.90
24226;DHT22;51462;51.422;5.514;2024-02-15T12:14:12;13.90;99.90
24226;DHT22;51462;51.422;5.514;2024-02-15T12:17:03;13.90;99.90
24226;DHT22;51462;51.422;5.514;2024-02-15T12:19:49;13.90;99.90
24226;DHT22;51462;51.422;5.514;2024-02-15T12:22:18;14.20;99.90
24226;DHT22;51462;51.422;5.514;2024-02-15T12:24:56;14.30;99.90
24226;DHT22;51462;51.422;5.514;2024-02-15T12:27:22;14.20;99.90
24226;DHT22;51462;51.422;5.514;2024-02-15T12:29:55;14.20;99.90
24226;DHT22;51462;51.422;5.514;2024-02-15T12:32:23;14.20;99.90
24226;DHT22;51462;51.422;5.514;2024-02-15T12:34:49;14.20;99.90
24226;DHT22;51462;51.422;5.514;2024-02-15T12:37:18;14.10;99.90
24226;DHT22;51462;51.422;5.514;2024-02-15T12:39:46;14.30;99.90
24226;DHT22;51462;51.422;5.514;2024-02-15T12:42:12;14.30;99.90
24226;DHT22;51462;51.422;5.514;2024-02-15T12:44:45;14.40;99.90
24226;DHT22;51462;51.422;5.514;2024-02-15T12:47:22;14.20;99.90
24226;DHT22;51462;51.422;5.514;2024-02-15T12:49:48;13.90;99.90
24226;DHT22;51462;51.422;5.514;2024-02-15T12:52:36;14.20;99.90
24226;DHT22;51462;51.422;5.514;2024-02-15T12:55:19;14.50;99.90
24226;DHT22;51462;51.422;5.514;2024-02-15T12:57:47;14.50;99.90
24226;DHT22;51462;51.422;5.514;2024-02-15T13:00:21;14.60;99.90
24226;DHT22;51462;51.422;5.514;2024-02-15T13:02:48;14.60;99.90
24226;DHT22;51462;51.422;5.514;2024-02-15T13:05:17;14.60;99.90
24226;DHT22;51462;51.422;5.514;2024-02-15T13:07:50;14.40;99.90
24226;DHT22;51462;51.422;5.514;2024-02-15T13:10:16;14.60;99.90
24226;DHT22;51462;51.422;5.514;2024-02-15T13:12:43;14.90;99.90
24226;DHT22;51462;51.422;5.514;2024-02-15T13:15:15;14.80;99.90
24226;DHT22;51462;51.422;5.514;2024-02-15T13:17:47;14.80;99.90
24226;DHT22;51462;51.422;5.514;2024-02-15T13:20:17;14.90;99.90
24226;DHT22;51462;51.422;5.514;2024-02-15T13:22:50;14.80;99.90
24226;DHT22;51462;51.422;5.514;2024-02-15T13:25:16;14.80;99.90
24226;DHT22;51462;51.422;5.514;2024-02-15T13:27:42;14.60;99.90
24226;DHT22;51462;51.422;5.514;2024-02-15T13:30:09;14.50;99.90
24226;DHT22;51462;51.422;5.514;2024-02-15T13:32:41;14.40;99.90
24226;DHT22;51462;51.422;5.514;2024-02-15T13:35:08;14.60;99.90
24226;DHT22;51462;51.422;5.514;2024-02-15T13:37:45;14.70;99.90
24226;DHT22;51462;51.422;5.514;2024-02-15T13:40:12;14.90;99.90
24226;DHT22;51462;51.422;5.514;2024-02-15T13:42:43;15.10;99.90
24226;DHT22;51462;51.422;5.514;2024-02-15T13:45:30;15.10;99.90
24226;DHT22;51462;51.422;5.514;2024-02-15T13:47:58;15.30;99.90
24226;DHT22;51462;51.422;5.514;2024-02-15T13:50:28;15.10;99.90
24226;DHT22;51462;51.422;5.514;2024-02-15T13:52:53;15.20;99.90
24226;DHT22;51462;51.422;5.514;2024-02-15T13:55:19;15.40;99.90
24226;DHT22;51462;51.422;5.514;2024-02-15T13:57:48;15.40;99.90
24226;DHT22;51462;51.422;5.514;2024-02-15T14:00:15;15.30;99.90
24226;DHT22;51462;51.422;5.514;2024-02-15T14:02:51;15.30;99.90
24226;DHT22;51462;51.422;5.514;2024-02-15T14:05:17;15.20;99.90
24226;DHT22;51462;51.422;5.514;2024-02-15T14:07:49;15.20;99.90
24226;DHT22;51462;51.422;5.514;2024-02-15T14:10:15;15.00;99.90
24226;DHT22;51462;51.422;5.514;2024-02-15T14:12:44;15.00;99.90
24226;DHT22;51462;51.422;5.514;2024-02-15T14:15:10;14.70;99.90
24226;DHT22;51462;51.422;5.514;2024-02-15T14:17:37;14.70;99.90
24226;DHT22;51462;51.422;5.514;2024-02-15T14:20:03;14.80;99.90
24226;DHT22;51462;51.422;5.514;2024-02-15T14:22:34;15.00;99.90
24226;DHT22;51462;51.422;5.514;2024-02-15T14:25:00;15.10;99.90
24226;DHT22;51462;51.422;5.514;2024-02-15T14:27:25;15.10;99.90
24226;DHT22;51462;51.422;5.514;2024-02-15T14:29:51;15.20;99.90
24226;DHT22;51462;51.422;5.514;2024-02-15T14:32:35;15.20;99.90
24226;DHT22;51462;51.422;5.514;2024-02-15T14:35:19;15.00;99.90
24226;DHT22;51462;51.422;5.514;2024-02-15T14:37:46;15.20;99.90
24226;DHT22;51462;51.422;5.514;2024-02-15T14:40:12;15.20;99.90
24226;DHT22;51462;51.422;5.514;2024-02-15T14:42:40;15.10;99.90
24226;DHT22;51462;51.422;5.514;2024-02-15T14:45:10;15.30;99.90
24226;DHT22;51462;51.422;5.514;2024-02-15T14:47:37;15.30;99.90
24226;DHT22;51462;51.422;5.514;2024-02-15T14:50:03;15.30;99.90
24226;DHT22;51462;51.422;5.514;2024-02-15T14:52:29;15.30;99.90
24226;DHT22;51462;51.422;5.514;2024-02-15T14:54:56;15.20;99.90
24226;DHT22;51462;51.422;5.514;2024-02-15T14:57:22;15.20;99.90
24226;DHT22;51462;51.422;5.514;2024-02-15T14:59:49;15.00;99.90
24226;DHT22;51462;51.422;5.514;2024-02-15T15:02:15;14.80;99.90
24226;DHT22;51462;51.422;5.514;2024-02-15T15:04:41;14.80;99.90
24226;DHT22;51462;51.422;5.514;2024-02-15T15:07:33;14.80;99.90
24226;DHT22;51462;51.422;5.514;2024-02-15T15:10:17;14.80;99.90
24226;DHT22;51462;51.422;5.514;2024-02-15T15:13:01;14.70;99.90
24226;DHT22;51462;51.422;5.514;2024-02-15T15:15:28;14.70;99.90
24226;DHT22;51462;51.422;5.514;2024-02-15T15:17:54;14.80;99.90
24226;DHT22;51462;51.422;5.514;2024-02-15T15:20:21;14.80;99.90
24226;DHT22;51462;51.422;5.514;2024-02-15T15:22:46;14.80;99.90
24226;DHT22;51462;51.422;5.514;2024-02-15T15:25:12;14.80;99.90
24226;DHT22;51462;51.422;5.514;2024-02-15T15:27:38;14.90;99.90
24226;DHT22;51462;51.422;5.514;2024-02-15T15:30:05;15.00;99.90
24226;DHT22;51462;51.422;5.514;2024-02-15T15:32:31;14.70;99.90
24226;DHT22;51462;51.422;5.514;2024-02-15T15:34:56;14.90;99.90
24226;DHT22;51462;51.422;5.514;2024-02-15T15:37:23;14.70;99.90
24226;DHT22;51462;51.422;5.514;2024-02-15T15:39:49;14.80;99.90
24226;DHT22;51462;51.422;5.514;2024-02-15T15:42:15;14.60;99.90
24226;DHT22;51462;51.422;5.514;2024-02-15T15:44:41;14.70;99.90